Chippewa Valley Regional, WI

10:59 AM CDT on July 04, 2015 (GMT -0500)
Chippewa Valley Regional | | Change Station
CLOSE
Current Station
Airport
Location: Eau Claire,
Elevation: 906 ft
Nearby Weather Stations

Elev 906 ft 44.87 °N, 91.48 °W | Updated 3 minutes ago

Clear
Clear
76 °F
Feels Like 76 °F
N
5
Wind Variable Wind from SSW

Today
High -- | Low -- °F
--% Chance of Precip.
Yesterday
High -- | Low -- °F
Precip. -- in
5:25 AM 8:55 PM
Waning Gibbous, 91% visible
Pressure 29.95 in
Visibility 10.0 miles
Clouds Clear
Dew Point 63 °F
Humidity 64%
Rainfall 0.00 in
Snow Depth Not available.
UV 9 out of 12
Pollen 4.20 out of 12
Air Quality Not available.
Flu Activity Not available.
METAR KEAU 041556Z 21004KT 10SM CLR 24/17 A2996 RMK AO2 SLP140 T02440172

More Conditions Fewer Conditions

Pressure 29.95 in
Visibility 10.0 miles
Clouds Clear
Dew Point 63 °F
Humidity 64%
Rainfall 0.00 in
Snow Depth Not available.
UV 9 out of 12
Pollen 4.20 out of 12
Air Quality Not available.
Flu Activity Not available.
METAR KEAU 041556Z 21004KT 10SM CLR 24/17 A2996 RMK AO2 SLP140 T02440172

More Conditions Fewer Conditions

10-Day Weather Forecast

×

Almanac

Astronomy

Jul. 04, 2015 Rise Set
Actual Time
Civil Twilight
Nautical Twilight
Astronomical Twilight
Moon
Length of Visible Light
Length of Day
Tomorrow will be .
, % of the Moon is Illuminated

Today's Extremes

State Highs State Lows

Community

WunderPhotos

Upload Photos

1,834,989 photos uploaded!

WunderBlogs® & News

Nearby

Air Quality

  Air Quality AQ Index Pollutant
Not available.

Snow Depth

Station Depth Elevation

Earthquake Activity

City Distance Mag. Time & Date
Minimum magnitude displayed is 2.5.

Coastal Water Temperatures

Place Temperature

Stations

Nearby Weather Stations

Station Location Temp. Windchill Dew Point Humidity Wind Precip. Elev Updated Type